Time;durP1;ratioP1;P1;durP2;ratioP2;P2;SDS_P1;SDS_P2;PMS_P1;PMS_P2;Temp;Humidity;BMP_temperature;BMP_pressure;BME280_temperature;BME280_humidity;BME280_pressure;Samples;Min_cycle;Max_cycle;Signal;HPM_P1;HPM_P2
2023/09/02 00:03:28;;;;;;;4.75;0.60;;;;;;;;;;10431016;22;20097;-63
2023/09/02 00:07:28;;;;;;;0.52;0.52;;;;;;;;;;10430446;22;19995;-63
2023/09/02 00:11:29;;;;;;;0.60;0.60;;;;;;;;;;10432332;22;20095;-63
2023/09/02 00:15:29;;;;;;;0.83;0.50;;;;;;;;;;10431182;22;20030;-64
2023/09/02 00:19:29;;;;;;;0.57;0.50;;;;;;;;;;10429002;22;20101;-64
2023/09/02 00:23:31;;;;;;;0.50;0.50;;;;;;;;;;10431628;22;20320;-63
2023/09/02 00:27:31;;;;;;;4.25;0.60;;;;;;;;;;10433018;22;20042;-64
2023/09/02 00:31:33;;;;;;;0.68;0.50;;;;;;;;;;10428624;22;20019;-63
2023/09/02 00:35:33;;;;;;;1.55;0.57;;;;;;;;;;10428897;22;19995;-63
2023/09/02 00:39:34;;;;;;;0.50;0.50;;;;;;;;;;10401978;22;19998;-63
2023/09/02 00:43:34;;;;;;;0.43;0.43;;;;;;;;;;10429548;22;19995;-63
2023/09/02 00:47:35;;;;;;;1.65;0.50;;;;;;;;;;10428995;22;20007;-63
2023/09/02 00:51:35;;;;;;;0.55;0.55;;;;;;;;;;10429775;22;20042;-63
2023/09/02 00:55:35;;;;;;;0.50;0.50;;;;;;;;;;10428693;22;20402;-65
2023/09/02 00:59:35;;;;;;;0.75;0.50;;;;;;;;;;10427644;22;19998;-63
2023/09/02 01:03:36;;;;;;;0.75;0.50;;;;;;;;;;10427927;22;20944;-65
2023/09/02 01:07:36;;;;;;;1.50;0.40;;;;;;;;;;10430087;22;20773;-63
2023/09/02 01:11:37;;;;;;;0.50;0.50;;;;;;;;;;10429115;22;19999;-65
2023/09/02 01:15:37;;;;;;;0.50;0.50;;;;;;;;;;10429569;22;20077;-63
2023/09/02 01:19:38;;;;;;;0.50;0.50;;;;;;;;;;10431032;22;19995;-63
2023/09/02 01:23:57;;;;;;;0.50;0.50;;;;;;;;;;10433807;22;20001;-64
2023/09/02 01:28:03;;;;;;;0.68;0.68;;;;;;;;;;10434635;22;20003;-63
2023/09/02 01:32:05;;;;;;;0.50;0.50;;;;;;;;;;10432262;22;20011;-64
2023/09/02 01:36:05;;;;;;;1.33;0.50;;;;;;;;;;10433312;22;20035;-63
2023/09/02 01:40:06;;;;;;;3.30;0.50;;;;;;;;;;10433920;22;20018;-63
2023/09/02 01:44:07;;;;;;;0.50;0.50;;;;;;;;;;10433835;22;20228;-64
2023/09/02 01:48:08;;;;;;;1.40;0.55;;;;;;;;;;10432832;22;20034;-64
2023/09/02 01:52:08;;;;;;;0.70;0.50;;;;;;;;;;10432199;22;20040;-64
2023/09/02 01:56:09;;;;;;;0.50;0.50;;;;;;;;;;10431293;22;20067;-64
2023/09/02 02:00:09;;;;;;;1.42;0.52;;;;;;;;;;10432106;22;20082;-64
2023/09/02 02:04:21;;;;;;;1.25;0.55;;;;;;;;;;10432995;22;20009;-65
2023/09/02 02:08:26;;;;;;;1.40;0.60;;;;;;;;;;10431548;22;20006;-64
2023/09/02 02:12:27;;;;;;;1.10;0.60;;;;;;;;;;10431232;22;20009;-63
2023/09/02 02:16:28;;;;;;;0.52;0.52;;;;;;;;;;10432048;22;20040;-64
2023/09/02 02:20:33;;;;;;;0.50;0.50;;;;;;;;;;10431171;22;20357;-63
2023/09/02 02:24:34;;;;;;;0.52;0.52;;;;;;;;;;10405437;22;19991;-64
2023/09/02 02:28:34;;;;;;;1.13;0.70;;;;;;;;;;10404508;22;20122;-64
2023/09/02 02:32:34;;;;;;;0.47;0.47;;;;;;;;;;10429906;22;20239;-64
2023/09/02 02:36:34;;;;;;;1.67;0.60;;;;;;;;;;10432684;22;19987;-63
2023/09/02 02:40:35;;;;;;;1.00;0.90;;;;;;;;;;10430720;22;19995;-64
2023/09/02 02:44:36;;;;;;;0.60;0.60;;;;;;;;;;10433097;22;20221;-63
2023/09/02 02:48:36;;;;;;;0.50;0.50;;;;;;;;;;10431306;22;20011;-64
2023/09/02 02:52:36;;;;;;;1.00;0.50;;;;;;;;;;10430924;22;19990;-65
2023/09/02 02:56:36;;;;;;;1.95;0.50;;;;;;;;;;10430848;22;20056;-63
2023/09/02 03:00:36;;;;;;;0.68;0.68;;;;;;;;;;10430930;22;20014;-63
2023/09/02 03:04:37;;;;;;;1.15;0.50;;;;;;;;;;10432659;22;20015;-64
2023/09/02 03:08:37;;;;;;;1.63;0.70;;;;;;;;;;10431843;22;20002;-64
2023/09/02 03:12:37;;;;;;;1.45;0.52;;;;;;;;;;10432066;22;20015;-64
2023/09/02 03:16:38;;;;;;;3.10;0.60;;;;;;;;;;10432393;22;20816;-63
2023/09/02 03:20:38;;;;;;;1.48;0.70;;;;;;;;;;10429948;22;20006;-64
2023/09/02 03:24:38;;;;;;;0.60;0.60;;;;;;;;;;10431520;22;19994;-64
2023/09/02 03:28:38;;;;;;;1.45;0.55;;;;;;;;;;10431646;22;20002;-63
2023/09/02 03:32:39;;;;;;;0.50;0.50;;;;;;;;;;10429404;22;20007;-63
2023/09/02 03:36:39;;;;;;;2.50;0.70;;;;;;;;;;10432778;22;20076;-64
2023/09/02 03:40:39;;;;;;;0.52;0.52;;;;;;;;;;10427018;22;20056;-63
2023/09/02 03:44:39;;;;;;;0.75;0.55;;;;;;;;;;10430946;22;20003;-63
2023/09/02 03:48:39;;;;;;;2.08;0.60;;;;;;;;;;10432701;22;20033;-63
2023/09/02 03:52:39;;;;;;;1.17;0.60;;;;;;;;;;10429843;22;20014;-63
2023/09/02 03:56:41;;;;;;;0.70;0.65;;;;;;;;;;10429398;22;20045;-63
2023/09/02 04:00:42;;;;;;;1.17;0.70;;;;;;;;;;10428313;22;20021;-63
2023/09/02 04:04:42;;;;;;;0.80;0.80;;;;;;;;;;10430132;22;20514;-63
2023/09/02 04:08:42;;;;;;;0.95;0.70;;;;;;;;;;10431319;22;20062;-63
2023/09/02 04:12:42;;;;;;;1.15;0.90;;;;;;;;;;10430162;22;20002;-63
2023/09/02 04:16:42;;;;;;;1.05;0.90;;;;;;;;;;10429386;22;20026;-63
2023/09/02 04:20:43;;;;;;;1.20;1.00;;;;;;;;;;10430829;22;19999;-64
2023/09/02 04:24:43;;;;;;;2.15;0.95;;;;;;;;;;10432516;22;20002;-65
2023/09/02 04:28:43;;;;;;;1.65;0.80;;;;;;;;;;10431212;22;20440;-64
2023/09/02 04:32:47;;;;;;;0.90;0.90;;;;;;;;;;10429980;22;20015;-64
2023/09/02 04:36:47;;;;;;;2.05;1.00;;;;;;;;;;10431161;22;19995;-64
2023/09/02 04:40:47;;;;;;;1.03;0.90;;;;;;;;;;10401486;22;20743;-63
2023/09/02 04:44:49;;;;;;;1.30;0.97;;;;;;;;;;10431043;22;20941;-63
2023/09/02 04:48:49;;;;;;;0.82;0.82;;;;;;;;;;10429668;22;20486;-64
2023/09/02 04:52:50;;;;;;;1.02;0.80;;;;;;;;;;10430725;22;20097;-65
2023/09/02 04:56:50;;;;;;;0.90;0.90;;;;;;;;;;10430995;22;20007;-63
2023/09/02 05:00:52;;;;;;;1.02;0.95;;;;;;;;;;10432794;22;20033;-64
2023/09/02 05:04:52;;;;;;;2.15;1.30;;;;;;;;;;10435447;22;20018;-65
2023/09/02 05:08:54;;;;;;;0.90;0.90;;;;;;;;;;10433781;22;20073;-64
2023/09/02 05:12:54;;;;;;;1.83;1.60;;;;;;;;;;10433140;22;20331;-64
2023/09/02 05:16:54;;;;;;;1.80;1.70;;;;;;;;;;10434078;22;20095;-64
2023/09/02 05:20:56;;;;;;;1.40;1.10;;;;;;;;;;10431814;22;20032;-64
2023/09/02 05:24:56;;;;;;;1.58;1.48;;;;;;;;;;10432829;22;19994;-64
2023/09/02 05:28:56;;;;;;;1.60;1.50;;;;;;;;;;10434403;22;19999;-64
2023/09/02 05:32:56;;;;;;;1.33;1.30;;;;;;;;;;10432424;22;20629;-64
2023/09/02 05:36:57;;;;;;;1.67;1.57;;;;;;;;;;10431691;22;20048;-64
2023/09/02 05:40:57;;;;;;;2.35;1.40;;;;;;;;;;10406390;22;20319;-64
2023/09/02 05:44:57;;;;;;;2.53;1.92;;;;;;;;;;10404868;22;19999;-64
2023/09/02 05:48:57;;;;;;;1.70;1.60;;;;;;;;;;10431765;22;20015;-64
2023/09/02 05:52:58;;;;;;;5.00;1.70;;;;;;;;;;10433025;22;20013;-64
2023/09/02 05:56:58;;;;;;;1.77;1.67;;;;;;;;;;10431635;22;19999;-64
2023/09/02 06:01:03;;;;;;;2.23;2.03;;;;;;;;;;10432137;22;20038;-64
2023/09/02 06:05:03;;;;;;;2.58;2.13;;;;;;;;;;10434271;22;20036;-64
2023/09/02 06:09:04;;;;;;;2.15;1.95;;;;;;;;;;10432322;22;20085;-64
2023/09/02 06:13:04;;;;;;;1.95;1.85;;;;;;;;;;10430993;22;20027;-64
2023/09/02 06:17:04;;;;;;;3.53;2.00;;;;;;;;;;10403343;22;20019;-64
2023/09/02 06:21:09;;;;;;;1.75;1.65;;;;;;;;;;10429582;22;20003;-64
2023/09/02 06:25:09;;;;;;;1.70;1.60;;;;;;;;;;10430868;22;20093;-64
2023/09/02 06:29:10;;;;;;;1.65;1.58;;;;;;;;;;10431646;22;20475;-64
2023/09/02 06:33:10;;;;;;;1.63;1.50;;;;;;;;;;10427623;22;20021;-65
2023/09/02 06:37:10;;;;;;;4.30;1.90;;;;;;;;;;10431835;22;20010;-65
2023/09/02 06:41:16;;;;;;;1.65;1.40;;;;;;;;;;10429138;22;20013;-64
2023/09/02 06:45:17;;;;;;;1.50;1.40;;;;;;;;;;10427220;22;20362;-63
2023/09/02 06:49:17;;;;;;;1.63;1.52;;;;;;;;;;10427969;22;20052;-65
2023/09/02 06:53:17;;;;;;;1.58;1.48;;;;;;;;;;10430150;22;20037;-65
2023/09/02 06:57:17;;;;;;;1.92;1.70;;;;;;;;;;10431806;22;20007;-65
2023/09/02 07:01:18;;;;;;;0.98;0.98;;;;;;;;;;10426498;22;20100;-65
2023/09/02 07:05:18;;;;;;;1.45;1.20;;;;;;;;;;10430028;22;20007;-65
2023/09/02 07:09:19;;;;;;;1.98;1.00;;;;;;;;;;10430087;22;20003;-65
2023/09/02 07:13:19;;;;;;;1.02;1.00;;;;;;;;;;10433831;22;20009;-65
2023/09/02 07:17:20;;;;;;;1.55;1.40;;;;;;;;;;10428444;22;20010;-65
2023/09/02 07:21:23;;;;;;;2.45;1.10;;;;;;;;;;10429902;22;20013;-65
2023/09/02 07:25:23;;;;;;;0.95;0.95;;;;;;;;;;10433017;22;20010;-65
2023/09/02 07:29:23;;;;;;;0.80;0.80;;;;;;;;;;10433879;22;20053;-65
2023/09/02 07:33:24;;;;;;;1.63;0.90;;;;;;;;;;10433581;22;20053;-65
2023/09/02 07:37:24;;;;;;;0.80;0.80;;;;;;;;;;10433881;22;20217;-65
2023/09/02 07:41:24;;;;;;;1.42;1.02;;;;;;;;;;10432324;22;20101;-65
2023/09/02 07:45:24;;;;;;;0.98;0.90;;;;;;;;;;10431805;22;20011;-65
2023/09/02 07:49:25;;;;;;;0.90;0.90;;;;;;;;;;10433804;22;20093;-65
2023/09/02 07:53:25;;;;;;;0.90;0.90;;;;;;;;;;10431096;22;20026;-65
2023/09/02 07:57:25;;;;;;;4.18;0.80;;;;;;;;;;10431659;22;20335;-65
2023/09/02 08:01:26;;;;;;;1.47;0.90;;;;;;;;;;10430615;22;20557;-65
2023/09/02 08:05:27;;;;;;;0.73;0.73;;;;;;;;;;10432629;22;20267;-65
2023/09/02 08:09:27;;;;;;;0.80;0.80;;;;;;;;;;10430870;22;19998;-65
2023/09/02 08:13:27;;;;;;;0.70;0.70;;;;;;;;;;10434878;22;20007;-65
2023/09/02 08:17:27;;;;;;;0.60;0.60;;;;;;;;;;10431073;22;20011;-65
2023/09/02 08:21:27;;;;;;;1.63;0.60;;;;;;;;;;10402038;22;20334;-64
2023/09/02 08:25:28;;;;;;;0.77;0.70;;;;;;;;;;10429591;22;20023;-65
2023/09/02 08:29:28;;;;;;;1.25;0.70;;;;;;;;;;10431844;22;20074;-65
2023/09/02 08:33:28;;;;;;;2.60;0.80;;;;;;;;;;10430343;22;20043;-65
2023/09/02 08:37:31;;;;;;;1.67;0.60;;;;;;;;;;10428956;22;20888;-64
2023/09/02 08:41:34;;;;;;;0.60;0.60;;;;;;;;;;10425422;22;20106;-65
2023/09/02 08:45:36;;;;;;;0.63;0.63;;;;;;;;;;10426674;22;20006;-64
2023/09/02 08:49:37;;;;;;;1.58;0.80;;;;;;;;;;10425335;22;19995;-65
2023/09/02 08:53:38;;;;;;;0.85;0.70;;;;;;;;;;10425049;22;20006;-65
2023/09/02 08:57:39;;;;;;;1.85;0.70;;;;;;;;;;10428740;22;20007;-65
2023/09/02 09:01:41;;;;;;;1.05;0.77;;;;;;;;;;10418278;22;20018;-64
2023/09/02 09:05:42;;;;;;;0.93;0.65;;;;;;;;;;10424031;22;20011;-65
2023/09/02 09:09:42;;;;;;;0.60;0.60;;;;;;;;;;10422639;22;20007;-64
2023/09/02 09:13:45;;;;;;;1.35;0.60;;;;;;;;;;10422838;22;20082;-65
2023/09/02 09:17:45;;;;;;;;;;;;;;;;;;10424651;22;20011;-65
2023/09/02 09:21:45;;;;;;;1.10;0.70;;;;;;;;;;10418596;22;19993;-64
2023/09/02 09:25:49;;;;;;;0.70;0.70;;;;;;;;;;10423669;22;20006;-65
2023/09/02 09:29:49;;;;;;;0.82;0.82;;;;;;;;;;10425322;22;20006;-64
2023/09/02 09:33:51;;;;;;;1.05;0.80;;;;;;;;;;10425253;22;20013;-65
2023/09/02 09:37:55;;;;;;;1.83;1.00;;;;;;;;;;10424271;22;20026;-65
2023/09/02 09:41:55;;;;;;;2.58;0.82;;;;;;;;;;10427828;22;19999;-65
2023/09/02 09:45:55;;;;;;;2.17;0.90;;;;;;;;;;10426680;22;20094;-64
2023/09/02 09:50:10;;;;;;;1.20;1.10;;;;;;;;;;10428918;22;20038;-64
2023/09/02 09:54:11;;;;;;;1.15;1.10;;;;;;;;;;10428895;22;20098;-65
2023/09/02 09:58:11;;;;;;;1.20;1.10;;;;;;;;;;10398881;22;20037;-64
2023/09/02 10:02:16;;;;;;;1.30;1.20;;;;;;;;;;10425356;22;20494;-64
2023/09/02 10:06:16;;;;;;;1.58;1.48;;;;;;;;;;10402738;22;19999;-64
2023/09/02 10:10:25;;;;;;;1.23;1.13;;;;;;;;;;10422525;22;20072;-64
2023/09/02 10:14:26;;;;;;;2.60;1.15;;;;;;;;;;10427951;22;20398;-64
2023/09/02 10:18:26;;;;;;;1.43;1.13;;;;;;;;;;10425618;22;20512;-64
2023/09/02 10:22:31;;;;;;;2.15;1.20;;;;;;;;;;10427336;22;20003;-64
2023/09/02 10:26:35;;;;;;;2.10;1.40;;;;;;;;;;10424790;22;20499;-64
2023/09/02 10:30:36;;;;;;;1.30;1.20;;;;;;;;;;10425958;22;20037;-64
2023/09/02 10:34:39;;;;;;;1.30;1.20;;;;;;;;;;10427270;22;20090;-64
2023/09/02 10:38:41;;;;;;;1.20;1.10;;;;;;;;;;10397857;22;20446;-64
2023/09/02 10:42:42;;;;;;;1.40;1.30;;;;;;;;;;10427874;22;20103;-64
2023/09/02 10:46:42;;;;;;;1.30;1.20;;;;;;;;;;10427822;22;20011;-64
2023/09/02 10:50:43;;;;;;;1.17;1.10;;;;;;;;;;10398871;22;20094;-64
2023/09/02 10:55:02;;;;;;;1.25;1.25;;;;;;;;;;10427435;22;20647;-64
2023/09/02 10:59:03;;;;;;;1.05;1.00;;;;;;;;;;10425520;22;20006;-64
2023/09/02 11:03:06;;;;;;;1.88;1.23;;;;;;;;;;10422938;22;20027;-64
2023/09/02 11:07:19;;;;;;;1.25;1.08;;;;;;;;;;10424889;22;20010;-64
2023/09/02 11:11:19;;;;;;;1.85;1.05;;;;;;;;;;10400766;22;20102;-64
2023/09/02 11:15:20;;;;;;;1.95;0.93;;;;;;;;;;10394618;22;20014;-63
2023/09/02 11:19:40;;;;;;;2.28;1.00;;;;;;;;;;10424971;22;19995;-63
2023/09/02 11:23:40;;;;;;;1.08;1.08;;;;;;;;;;10426394;22;20011;-63
2023/09/02 11:27:44;;;;;;;1.57;1.10;;;;;;;;;;10425051;22;20121;-63
2023/09/02 11:32:14;;;;;;;1.17;1.08;;;;;;;;;;10424665;22;20010;-63
2023/09/02 11:36:15;;;;;;;1.52;0.98;;;;;;;;;;10370601;22;20105;-63
2023/09/02 11:40:16;;;;;;;1.15;0.77;;;;;;;;;;10423728;22;20711;-63
2023/09/02 11:44:17;;;;;;;1.67;0.80;;;;;;;;;;10424688;22;19994;-63
2023/09/02 11:48:17;;;;;;;1.48;0.90;;;;;;;;;;10395556;22;20014;-63
2023/09/02 11:52:20;;;;;;;1.20;1.10;;;;;;;;;;10424808;22;20738;-63
2023/09/02 11:56:20;;;;;;;1.85;1.00;;;;;;;;;;10425597;22;20081;-63
2023/09/02 12:00:21;;;;;;;1.27;1.00;;;;;;;;;;10421098;22;20090;-63
2023/09/02 12:04:23;;;;;;;0.98;0.95;;;;;;;;;;10422937;22;20865;-64
2023/09/02 12:08:23;;;;;;;1.10;1.10;;;;;;;;;;10425043;22;20026;-63
2023/09/02 12:12:23;;;;;;;2.22;1.13;;;;;;;;;;10424151;22;19999;-63
2023/09/02 12:16:25;;;;;;;1.50;1.17;;;;;;;;;;10425920;22;20049;-64
2023/09/02 12:20:26;;;;;;;1.23;0.90;;;;;;;;;;10423615;22;20064;-63
2023/09/02 12:24:26;;;;;;;1.90;0.90;;;;;;;;;;10424179;22;20003;-63
2023/09/02 12:28:29;;;;;;;1.10;1.00;;;;;;;;;;10425266;22;20675;-64
2023/09/02 12:32:29;;;;;;;1.40;1.00;;;;;;;;;;10421914;22;20007;-63
2023/09/02 12:36:33;;;;;;;1.27;1.00;;;;;;;;;;10423254;22;20103;-63
2023/09/02 12:40:33;;;;;;;1.30;1.20;;;;;;;;;;10422777;22;20005;-63
2023/09/02 12:44:34;;;;;;;1.55;0.95;;;;;;;;;;10422838;22;20687;-63
2023/09/02 12:48:35;;;;;;;1.25;1.00;;;;;;;;;;10424948;22;20865;-63
2023/09/02 12:52:35;;;;;;;1.85;1.00;;;;;;;;;;10422433;22;20759;-63
2023/09/02 12:56:35;;;;;;;1.13;0.80;;;;;;;;;;10423482;22;20921;-63
2023/09/02 13:00:36;;;;;;;0.73;0.73;;;;;;;;;;10422243;22;20244;-63
2023/09/02 13:04:37;;;;;;;0.80;0.80;;;;;;;;;;10424537;22;20351;-63
2023/09/02 13:08:41;;;;;;;1.00;0.98;;;;;;;;;;10423797;22;20034;-63
2023/09/02 13:12:41;;;;;;;3.38;0.90;;;;;;;;;;10425567;22;20028;-63
2023/09/02 13:16:42;;;;;;;1.05;0.90;;;;;;;;;;10426596;22;20011;-62
2023/09/02 13:20:42;;;;;;;1.40;0.90;;;;;;;;;;10427599;22;20009;-63
2023/09/02 13:24:44;;;;;;;0.93;0.90;;;;;;;;;;10426407;22;20590;-63
2023/09/02 13:28:44;;;;;;;0.90;0.90;;;;;;;;;;10426298;22;20033;-64
2023/09/02 13:32:44;;;;;;;0.97;0.90;;;;;;;;;;10417108;22;20069;-63
2023/09/02 13:36:45;;;;;;;1.33;0.80;;;;;;;;;;10425640;22;20226;-63
2023/09/02 13:40:45;;;;;;;2.47;0.90;;;;;;;;;;10426264;22;20009;-63
2023/09/02 13:44:46;;;;;;;1.17;0.90;;;;;;;;;;10428466;22;20110;-63
2023/09/02 13:48:47;;;;;;;0.77;0.77;;;;;;;;;;10398172;22;20505;-63
2023/09/02 13:52:50;;;;;;;0.73;0.73;;;;;;;;;;10428890;22;19999;-63
2023/09/02 13:56:50;;;;;;;0.95;0.80;;;;;;;;;;10427773;22;20715;-63
2023/09/02 14:00:51;;;;;;;1.30;0.70;;;;;;;;;;10424890;22;20434;-63
2023/09/02 14:04:52;;;;;;;1.90;0.90;;;;;;;;;;10427149;22;20057;-63
2023/09/02 14:08:52;;;;;;;1.10;0.80;;;;;;;;;;10428130;22;20340;-63
2023/09/02 14:12:53;;;;;;;0.90;0.88;;;;;;;;;;10427190;22;20741;-63
2023/09/02 14:16:53;;;;;;;1.00;0.70;;;;;;;;;;10429087;22;20015;-63
2023/09/02 14:20:53;;;;;;;0.85;0.80;;;;;;;;;;10397638;22;20014;-63
2023/09/02 14:24:53;;;;;;;1.40;0.80;;;;;;;;;;10425589;22;19995;-63
2023/09/02 14:28:53;;;;;;;1.88;0.80;;;;;;;;;;10425812;22;19999;-63
2023/09/02 14:32:53;;;;;;;1.63;0.80;;;;;;;;;;10423900;22;20021;-63
2023/09/02 14:36:54;;;;;;;0.98;0.70;;;;;;;;;;10427858;22;20003;-63
2023/09/02 14:40:54;;;;;;;0.80;0.80;;;;;;;;;;10425902;22;19998;-64
2023/09/02 14:44:55;;;;;;;1.33;0.90;;;;;;;;;;10426874;22;20077;-63
2023/09/02 14:48:56;;;;;;;1.20;0.80;;;;;;;;;;10425994;22;20451;-63
2023/09/02 14:52:56;;;;;;;0.75;0.73;;;;;;;;;;10426103;22;20015;-63
2023/09/02 14:56:56;;;;;;;1.10;0.80;;;;;;;;;;10428126;22;20168;-63
2023/09/02 15:01:00;;;;;;;0.73;0.73;;;;;;;;;;10423447;22;20048;-63
2023/09/02 15:05:03;;;;;;;1.25;0.90;;;;;;;;;;10429516;22;20009;-63
2023/09/02 15:09:04;;;;;;;1.25;0.70;;;;;;;;;;10425162;22;20309;-63
2023/09/02 15:13:04;;;;;;;0.95;0.80;;;;;;;;;;10426933;22;20113;-63
2023/09/02 15:17:06;;;;;;;1.27;0.90;;;;;;;;;;10424876;22;20006;-63
2023/09/02 15:21:08;;;;;;;2.92;1.02;;;;;;;;;;10426801;22;20017;-63
2023/09/02 15:25:09;;;;;;;1.27;0.80;;;;;;;;;;10397275;22;20064;-63
2023/09/02 15:29:11;;;;;;;0.90;0.90;;;;;;;;;;10426669;22;20204;-64
2023/09/02 15:33:13;;;;;;;0.80;0.73;;;;;;;;;;10425017;22;20110;-63
2023/09/02 15:37:18;;;;;;;1.95;0.90;;;;;;;;;;10424501;22;20731;-63
2023/09/02 15:41:18;;;;;;;0.98;0.88;;;;;;;;;;10425711;22;20416;-63
2023/09/02 15:45:18;;;;;;;0.80;0.80;;;;;;;;;;10426100;22;20573;-63
2023/09/02 15:49:19;;;;;;;1.50;0.80;;;;;;;;;;10422824;22;20093;-67
2023/09/02 15:53:19;;;;;;;1.10;0.70;;;;;;;;;;10395591;22;20113;-63
2023/09/02 15:57:19;;;;;;;1.43;0.83;;;;;;;;;;10422798;22;20002;-63
2023/09/02 16:01:19;;;;;;;0.70;0.70;;;;;;;;;;10416813;22;20026;-63
2023/09/02 16:05:20;;;;;;;1.17;1.00;;;;;;;;;;10423820;22;20018;-63
2023/09/02 16:09:20;;;;;;;1.38;0.80;;;;;;;;;;10422895;22;20034;-63
2023/09/02 16:13:21;;;;;;;1.05;0.70;;;;;;;;;;10422140;22;20002;-63
2023/09/02 16:17:23;;;;;;;0.70;0.70;;;;;;;;;;10420119;22;20015;-63
2023/09/02 16:21:23;;;;;;;0.80;0.80;;;;;;;;;;10420900;22;19999;-63
2023/09/02 16:25:23;;;;;;;0.90;0.70;;;;;;;;;;10391973;22;20483;-63
2023/09/02 16:29:25;;;;;;;0.70;0.70;;;;;;;;;;10390403;22;19994;-63
2023/09/02 16:33:26;;;;;;;0.93;0.70;;;;;;;;;;10419654;22;20057;-63
2023/09/02 16:37:26;;;;;;;3.47;0.80;;;;;;;;;;10419826;22;20003;-63
2023/09/02 16:41:27;;;;;;;1.35;0.90;;;;;;;;;;10392004;22;20018;-63
2023/09/02 16:45:28;;;;;;;1.80;0.90;;;;;;;;;;10420687;22;20110;-63
2023/09/02 16:49:28;;;;;;;1.52;0.77;;;;;;;;;;10424252;22;19991;-63
2023/09/02 16:53:29;;;;;;;0.90;0.70;;;;;;;;;;10424452;22;20447;-63
2023/09/02 16:57:29;;;;;;;2.92;0.90;;;;;;;;;;10399850;22;20350;-63
2023/09/02 17:01:30;;;;;;;1.17;1.00;;;;;;;;;;10425607;22;20546;-63
2023/09/02 17:05:31;;;;;;;1.15;0.88;;;;;;;;;;10427708;22;19999;-63
2023/09/02 17:09:32;;;;;;;1.48;0.80;;;;;;;;;;10427593;22;20085;-63
2023/09/02 17:13:33;;;;;;;0.77;0.77;;;;;;;;;;10428220;22;19998;-63
2023/09/02 17:17:34;;;;;;;0.60;0.60;;;;;;;;;;10427714;22;20065;-64
2023/09/02 17:21:35;;;;;;;0.70;0.70;;;;;;;;;;10427360;22;20007;-64
2023/09/02 17:25:35;;;;;;;2.17;0.80;;;;;;;;;;10428293;22;20010;-63
2023/09/02 17:29:36;;;;;;;0.77;0.77;;;;;;;;;;10425836;22;19998;-63
2023/09/02 17:33:37;;;;;;;0.75;0.70;;;;;;;;;;10427732;22;20018;-63
2023/09/02 17:37:37;;;;;;;0.70;0.70;;;;;;;;;;10427987;22;20068;-63
2023/09/02 17:41:37;;;;;;;1.03;1.00;;;;;;;;;;10427980;22;20035;-64
2023/09/02 17:45:37;;;;;;;0.77;0.70;;;;;;;;;;10414552;22;20237;-63
2023/09/02 17:49:38;;;;;;;0.93;0.70;;;;;;;;;;10425749;22;20002;-63
2023/09/02 17:53:38;;;;;;;0.83;0.83;;;;;;;;;;10427255;22;20733;-63
2023/09/02 17:57:38;;;;;;;0.90;0.90;;;;;;;;;;10400992;22;20038;-63
2023/09/02 18:01:39;;;;;;;0.80;0.70;;;;;;;;;;10422999;22;20084;-63
2023/09/02 18:05:39;;;;;;;0.77;0.77;;;;;;;;;;10426154;22;20081;-63
2023/09/02 18:09:39;;;;;;;1.08;0.80;;;;;;;;;;10398079;22;20034;-63
2023/09/02 18:13:39;;;;;;;0.97;0.73;;;;;;;;;;10428753;22;20227;-62
2023/09/02 18:17:40;;;;;;;1.05;0.80;;;;;;;;;;10426631;22;20015;-63
2023/09/02 18:21:40;;;;;;;1.25;0.82;;;;;;;;;;10399049;22;20649;-62
2023/09/02 18:25:41;;;;;;;1.17;0.90;;;;;;;;;;10424595;22;19999;-63
2023/09/02 18:29:41;;;;;;;0.80;0.80;;;;;;;;;;10420284;22;20757;-63
2023/09/02 18:33:41;;;;;;;0.80;0.80;;;;;;;;;;10425286;22;20632;-63
2023/09/02 18:37:43;;;;;;;0.80;0.80;;;;;;;;;;10420948;22;20009;-63
2023/09/02 18:41:44;;;;;;;0.98;0.98;;;;;;;;;;10422120;22;20022;-63
2023/09/02 18:45:44;;;;;;;1.15;0.90;;;;;;;;;;10425903;22;20220;-64
2023/09/02 18:49:44;;;;;;;1.10;1.00;;;;;;;;;;10424123;22;20003;-63
2023/09/02 18:53:44;;;;;;;2.42;1.05;;;;;;;;;;10426229;22;20114;-63
2023/09/02 18:57:44;;;;;;;1.05;0.90;;;;;;;;;;10426044;22;20015;-63
2023/09/02 19:01:45;;;;;;;0.85;0.85;;;;;;;;;;10422614;22;20038;-63
2023/09/02 19:05:46;;;;;;;0.95;0.77;;;;;;;;;;10426247;22;20093;-62
2023/09/02 19:09:46;;;;;;;1.48;0.90;;;;;;;;;;10424233;22;20007;-63
2023/09/02 19:13:46;;;;;;;1.17;0.90;;;;;;;;;;10425407;22;20040;-63
2023/09/02 19:17:47;;;;;;;1.37;1.00;;;;;;;;;;10425021;22;20417;-63
2023/09/02 19:21:47;;;;;;;3.43;1.00;;;;;;;;;;10425484;22;20351;-63
2023/09/02 19:25:47;;;;;;;1.95;1.20;;;;;;;;;;10425967;22;21030;-63
2023/09/02 19:29:47;;;;;;;1.17;1.02;;;;;;;;;;10423812;22;20070;-63
2023/09/02 19:33:48;;;;;;;1.30;1.10;;;;;;;;;;10423469;22;20015;-63
2023/09/02 19:37:48;;;;;;;2.13;0.90;;;;;;;;;;10425857;22;19998;-62
2023/09/02 19:41:51;;;;;;;2.92;1.00;;;;;;;;;;10425790;22;20002;-63
2023/09/02 19:45:51;;;;;;;1.60;1.20;;;;;;;;;;10426755;22;20851;-63
2023/09/02 19:49:51;;;;;;;1.57;1.07;;;;;;;;;;10423710;22;20111;-63
2023/09/02 19:53:52;;;;;;;0.88;0.88;;;;;;;;;;10423756;22;20011;-63
2023/09/02 19:57:52;;;;;;;1.00;1.00;;;;;;;;;;10427400;22;20097;-63
2023/09/02 20:01:52;;;;;;;5.15;1.02;;;;;;;;;;10424610;22;20019;-63
2023/09/02 20:05:52;;;;;;;3.10;1.10;;;;;;;;;;10426453;22;20057;-63
2023/09/02 20:09:53;;;;;;;2.05;0.93;;;;;;;;;;10424207;22;20032;-63
2023/09/02 20:13:53;;;;;;;3.40;0.93;;;;;;;;;;10425735;22;19998;-63
2023/09/02 20:17:55;;;;;;;2.03;1.05;;;;;;;;;;10424706;22;20026;-64
2023/09/02 20:21:55;;;;;;;1.67;1.00;;;;;;;;;;10423995;22;20006;-63
2023/09/02 20:25:55;;;;;;;2.30;0.80;;;;;;;;;;10426127;22;20385;-63
2023/09/02 20:29:55;;;;;;;2.28;0.95;;;;;;;;;;10423670;22;19999;-63
2023/09/02 20:33:55;;;;;;;1.75;0.85;;;;;;;;;;10421513;22;20140;-63
2023/09/02 20:37:56;;;;;;;1.10;0.93;;;;;;;;;;10421585;22;20033;-62
2023/09/02 20:41:56;;;;;;;1.27;0.90;;;;;;;;;;10423602;22;20025;-63
2023/09/02 20:45:56;;;;;;;2.55;1.20;;;;;;;;;;10424491;22;20014;-62
2023/09/02 20:49:57;;;;;;;1.00;0.90;;;;;;;;;;10421371;22;20030;-63
2023/09/02 20:53:57;;;;;;;2.13;1.10;;;;;;;;;;10423847;22;20005;-63
2023/09/02 20:57:57;;;;;;;3.03;0.95;;;;;;;;;;10417409;22;20010;-63
2023/09/02 21:01:58;;;;;;;2.22;1.00;;;;;;;;;;10419631;22;20081;-63
2023/09/02 21:05:58;;;;;;;1.27;0.93;;;;;;;;;;10423536;22;20666;-63
2023/09/02 21:09:58;;;;;;;1.77;1.08;;;;;;;;;;10425239;22;20029;-63
2023/09/02 21:13:58;;;;;;;0.80;0.80;;;;;;;;;;10424015;22;20344;-63
2023/09/02 21:17:59;;;;;;;1.63;0.90;;;;;;;;;;10426279;22;20045;-63
2023/09/02 21:21:59;;;;;;;1.23;0.80;;;;;;;;;;10423936;22;19995;-63
2023/09/02 21:26:09;;;;;;;3.95;0.90;;;;;;;;;;10424744;22;20022;-63
2023/09/02 21:30:09;;;;;;;1.95;0.93;;;;;;;;;;10423356;22;20030;-63
2023/09/02 21:34:10;;;;;;;1.00;1.00;;;;;;;;;;10424108;22;19998;-63
2023/09/02 21:38:10;;;;;;;2.83;1.02;;;;;;;;;;10425144;22;20017;-63
2023/09/02 21:42:10;;;;;;;2.80;0.90;;;;;;;;;;10423508;22;20003;-63
2023/09/02 21:46:11;;;;;;;1.00;0.97;;;;;;;;;;10426519;22;20071;-63
2023/09/02 21:50:11;;;;;;;1.55;1.00;;;;;;;;;;10423037;22;20279;-63
2023/09/02 21:54:11;;;;;;;1.38;1.10;;;;;;;;;;10427474;22;20110;-63
2023/09/02 21:58:12;;;;;;;2.80;1.10;;;;;;;;;;10424194;22;19999;-63
2023/09/02 22:02:12;;;;;;;1.90;1.08;;;;;;;;;;10397376;22;20022;-63
2023/09/02 22:06:13;;;;;;;1.52;1.00;;;;;;;;;;10427049;22;20049;-63
2023/09/02 22:10:14;;;;;;;2.80;1.20;;;;;;;;;;10426500;22;20039;-63
2023/09/02 22:14:14;;;;;;;1.77;1.10;;;;;;;;;;10429773;22;20014;-62
2023/09/02 22:18:14;;;;;;;2.07;1.20;;;;;;;;;;10425622;22;20019;-63
2023/09/02 22:22:14;;;;;;;3.30;1.40;;;;;;;;;;10425664;22;20088;-63
2023/09/02 22:26:15;;;;;;;2.07;1.30;;;;;;;;;;10399305;22;19998;-63
2023/09/02 22:30:15;;;;;;;2.85;1.10;;;;;;;;;;10425226;22;19995;-63
2023/09/02 22:34:15;;;;;;;1.23;1.13;;;;;;;;;;10424258;22;20045;-63
2023/09/02 22:38:16;;;;;;;1.20;1.10;;;;;;;;;;10424496;22;19999;-63
2023/09/02 22:42:16;;;;;;;3.00;1.20;;;;;;;;;;10424367;22;20010;-63
2023/09/02 22:46:16;;;;;;;2.25;1.20;;;;;;;;;;10425358;22;20096;-63
2023/09/02 22:50:18;;;;;;;2.55;1.10;;;;;;;;;;10424297;22;20022;-63
2023/09/02 22:54:18;;;;;;;1.15;1.05;;;;;;;;;;10427609;22;19999;-63
2023/09/02 22:58:18;;;;;;;3.67;1.27;;;;;;;;;;10424591;22;20055;-64
2023/09/02 23:02:18;;;;;;;1.83;1.23;;;;;;;;;;10423766;22;20025;-63
2023/09/02 23:06:19;;;;;;;1.75;1.30;;;;;;;;;;10423244;22;20014;-63
2023/09/02 23:10:19;;;;;;;1.10;0.95;;;;;;;;;;10423900;22;20821;-64
2023/09/02 23:14:19;;;;;;;0.80;0.80;;;;;;;;;;10423756;22;20003;-63
2023/09/02 23:18:19;;;;;;;2.28;1.20;;;;;;;;;;10398109;22;20377;-62
2023/09/02 23:22:20;;;;;;;1.63;1.10;;;;;;;;;;10427844;22;20003;-62
2023/09/02 23:26:20;;;;;;;3.60;1.20;;;;;;;;;;10425971;22;19999;-63
2023/09/02 23:30:21;;;;;;;2.35;1.10;;;;;;;;;;10425966;22;20172;-63
2023/09/02 23:34:21;;;;;;;2.58;1.23;;;;;;;;;;10425373;22;20006;-63
2023/09/02 23:38:23;;;;;;;2.67;1.20;;;;;;;;;;10425922;22;20006;-63
2023/09/02 23:42:23;;;;;;;2.35;1.10;;;;;;;;;;10426830;22;20593;-63
2023/09/02 23:46:24;;;;;;;1.55;1.23;;;;;;;;;;10425915;22;20034;-63